Airfield :
LOGIN :

Register | Disclaimer

   EN    FR    IT 

 










Legend :    VFR   Marginal VFR   IFR   Intensive IFR   Very Intensive IFR
Visi :
Ceiling :
>= 8 km
>= 3000ft
5 to 8 km
1000 to 3000 ft
1500m to 5 km
500 to 1000 ft
800 to 1500m
200 to 500 ft
< 800m
< 200 ft
Symbols :   Thunderstorms  Fog  Heavy snow  Heavy precipitations  Wind > 20 kt
SIGMETs :     Misc.  Thunderstorms  Icing  Turbulence  Mountain Waves  Volcanic Ashes






- Airport Elevation : 47 ft
- IATA code : CBG


EGSC - Cambridge

CURRENT METAR :
  • 151620Z 29008KT 9999 VCSH FEW027 BKN037 17/12 Q1015

EXPIRED METARs :
  • 151550Z 29006KT 9999 FEW015 BKN028 17/11 Q1015
  • 151520Z 29007KT 9999 FEW012 BKN028 17/11 Q1015
  • 151420Z 30005KT 9999 VCSH FEW016 BKN034 16/12 Q1015
  • 151350Z 30009KT 9999 VCSH FEW024 BKN029 15/12 Q1015

TAF TAF EGSC
Valid from the 15 at 15:00 until the 15 at 17:00 UTC


151358Z 1515/1517 29005KT 9999 SCT020



MET'MAP, your aeronautical weather chart ! - Copyright ORBIFLY December 2007 - Disclaimer

ORBIFLY MET'MAP TEAM :

Programming & Development : Alexandra Zaïnal
Concept & original design : Baudouin d'Aumeries
Assistance for programming : Marc-Olivier Méhu
Technical & hardware support : Manuel Goepfert

Contact : metmap@orbifly.com




SOURCES & CREDITS :

   NOAA